Time;durP1;ratioP1;P1;durP2;ratioP2;P2;SDS_P1;SDS_P2;PMS_P1;PMS_P2;Temp;Humidity;BMP_temperature;BMP_pressure;BME280_temperature;BME280_humidity;BME280_pressure;Samples;Min_cycle;Max_cycle;Signal;HPM_P1;HPM_P2
2022/01/04 00:01:47;;;;;;;;;;;5.50;91.80;;;;;;6100124;23;19925;-79
2022/01/04 00:04:14;;;;;;;;;;;5.40;91.70;;;;;;6124451;23;19925;-82
2022/01/04 00:06:41;;;;;;;;;;;5.40;91.70;;;;;;6099958;23;20354;-81
2022/01/04 00:09:08;;;;;;;;;;;5.40;92.10;;;;;;6098977;23;20334;-80
2022/01/04 00:14:10;;;;;;;;;;;5.40;91.60;;;;;;6124389;23;19929;-78
2022/01/04 00:16:38;;;;;;;;;;;5.40;91.70;;;;;;6100009;23;20369;-79
2022/01/04 00:19:04;;;;;;;;;;;5.40;91.70;;;;;;6099134;23;20480;-80
2022/01/04 00:21:31;;;;;;;;;;;5.30;91.80;;;;;;6099951;23;19928;-79
2022/01/04 00:23:58;;;;;;;;;;;5.30;92.10;;;;;;6099688;23;19921;-80
2022/01/04 00:26:25;;;;;;;;;;;5.30;92.10;;;;;;6099153;23;19921;-81
2022/01/04 00:28:52;;;;;;;;;;;5.30;92.10;;;;;;6099883;23;20343;-80
2022/01/04 00:31:20;;;;;;;;;;;5.30;92.00;;;;;;6124210;23;19920;-82
2022/01/04 00:33:47;;;;;;;;;;;5.30;92.10;;;;;;6100356;23;19952;-79
2022/01/04 00:36:14;;;;;;;;;;;5.30;92.00;;;;;;6124164;23;20334;-83
2022/01/04 00:38:41;;;;;;;;;;;5.30;92.00;;;;;;6099696;23;20365;-79
2022/01/04 00:41:09;;;;;;;;;;;5.30;92.00;;;;;;6099211;23;19921;-80
2022/01/04 00:43:36;;;;;;;;;;;5.30;91.90;;;;;;6099895;23;20354;-79
2022/01/04 00:46:03;;;;;;;;;;;5.30;92.00;;;;;;6099847;23;19920;-80
2022/01/04 00:50:57;;;;;;;;;;;5.30;92.10;;;;;;6095936;23;20339;-81
2022/01/04 00:53:24;;;;;;;;;;;5.30;92.20;;;;;;6070083;23;19921;-79
2022/01/04 00:55:50;;;;;;;;;;;5.30;92.20;;;;;;6070619;23;19921;-80
2022/01/04 00:58:17;;;;;;;;;;;5.30;92.10;;;;;;6070344;23;19973;-80
2022/01/04 01:00:44;;;;;;;;;;;5.30;92.40;;;;;;6071396;23;19952;-80
2022/01/04 01:03:11;;;;;;;;;;;5.30;92.30;;;;;;6069773;23;19932;-80
2022/01/04 01:05:38;;;;;;;;;;;5.30;92.30;;;;;;6071132;23;19945;-80
2022/01/04 01:08:05;;;;;;;;;;;5.30;92.20;;;;;;6070569;23;20335;-81
2022/01/04 01:13:02;;;;;;;;;;;5.30;92.30;;;;;;6096024;23;20373;-79
2022/01/04 01:15:29;;;;;;;;;;;5.30;92.40;;;;;;6070294;23;19929;-82
2022/01/04 01:17:56;;;;;;;;;;;5.30;92.40;;;;;;6072272;23;19972;-79
2022/01/04 01:20:23;;;;;;;;;;;5.30;92.40;;;;;;6097444;23;19921;-81
2022/01/04 01:22:49;;;;;;;;;;;5.30;92.40;;;;;;6073253;23;19921;-79
2022/01/04 01:25:17;;;;;;;;;;;5.30;92.50;;;;;;6072668;23;20335;-78
2022/01/04 01:27:43;;;;;;;;;;;5.30;92.40;;;;;;6072987;23;19976;-80
2022/01/04 01:30:10;;;;;;;;;;;5.30;92.30;;;;;;6096781;23;19925;-80
2022/01/04 01:32:37;;;;;;;;;;;5.30;92.30;;;;;;6072295;23;19955;-79
2022/01/04 01:35:04;;;;;;;;;;;5.30;92.40;;;;;;6072975;23;19925;-80
2022/01/04 01:37:31;;;;;;;;;;;5.30;92.30;;;;;;6072198;23;20353;-80
2022/01/04 01:39:58;;;;;;;;;;;5.30;92.30;;;;;;6072098;23;19972;-79
2022/01/04 01:42:25;;;;;;;;;;;5.30;92.40;;;;;;6071811;23;19928;-79
2022/01/04 01:44:52;;;;;;;;;;;5.30;92.40;;;;;;6072472;23;19949;-80
2022/01/04 01:47:18;;;;;;;;;;;5.30;92.40;;;;;;6072342;23;20343;-82
2022/01/04 01:49:45;;;;;;;;;;;5.30;92.40;;;;;;6096009;23;19924;-80
2022/01/04 01:52:12;;;;;;;;;;;5.30;92.40;;;;;;6100820;23;19947;-79
2022/01/04 01:54:39;;;;;;;;;;;5.30;92.40;;;;;;6126844;23;20339;-79
2022/01/04 01:57:06;;;;;;;;;;;5.30;92.50;;;;;;6101586;23;19921;-79
2022/01/04 01:59:33;;;;;;;;;;;5.30;92.40;;;;;;6125804;23;20389;-79
2022/01/04 02:02:00;;;;;;;;;;;5.30;92.40;;;;;;6101660;23;19924;-82
2022/01/04 02:04:27;;;;;;;;;;;5.20;92.70;;;;;;6100301;23;19921;-79
2022/01/04 02:06:54;;;;;;;;;;;5.20;92.80;;;;;;6126202;23;20340;-80
2022/01/04 02:09:21;;;;;;;;;;;5.20;92.70;;;;;;6100364;23;19928;-80
2022/01/04 02:11:49;;;;;;;;;;;5.20;92.80;;;;;;6126743;23;20351;-78
2022/01/04 02:14:17;;;;;;;;;;;5.20;92.60;;;;;;6100101;23;19971;-80
2022/01/04 02:16:43;;;;;;;;;;;5.20;92.60;;;;;;6126568;23;19921;-82
2022/01/04 02:19:10;;;;;;;;;;;5.20;92.60;;;;;;6100827;23;19987;-80
2022/01/04 02:21:37;;;;;;;;;;;5.20;92.50;;;;;;6100123;23;19975;-80
2022/01/04 02:24:04;;;;;;;;;;;5.20;92.50;;;;;;6100757;23;19921;-79
2022/01/04 02:26:32;;;;;;;;;;;5.20;92.50;;;;;;6100103;23;19925;-79
2022/01/04 02:28:59;;;;;;;;;;;5.20;92.60;;;;;;6126675;23;19921;-79
2022/01/04 02:31:27;;;;;;;;;;;5.20;92.60;;;;;;6100500;23;20365;-79
2022/01/04 02:33:54;;;;;;;;;;;5.20;92.70;;;;;;6100851;23;19921;-82
2022/01/04 02:36:20;;;;;;;;;;;5.30;92.70;;;;;;6100080;23;19976;-79
2022/01/04 02:38:47;;;;;;;;;;;5.30;92.60;;;;;;6100800;23;20327;-82
2022/01/04 02:41:14;;;;;;;;;;;5.30;92.60;;;;;;6101053;23;19921;-79
2022/01/04 02:43:41;;;;;;;;;;;5.30;92.50;;;;;;6125713;23;19921;-79
2022/01/04 02:46:09;;;;;;;;;;;5.30;92.60;;;;;;6100687;23;19924;-82
2022/01/04 02:48:42;;;;;;;;;;;5.40;92.60;;;;;;6100071;23;19944;-79
2022/01/04 02:51:10;;;;;;;;;;;5.30;92.50;;;;;;6100752;23;19925;-78
2022/01/04 02:53:36;;;;;;;;;;;5.30;92.60;;;;;;6099879;23;19925;-79
2022/01/04 02:56:03;;;;;;;;;;;5.30;92.70;;;;;;6101055;23;19921;-82
2022/01/04 02:58:30;;;;;;;;;;;5.30;92.70;;;;;;6099732;23;19925;-79
2022/01/04 03:00:57;;;;;;;;;;;5.30;92.70;;;;;;6100991;23;20334;-82
2022/01/04 03:03:24;;;;;;;;;;;5.30;92.80;;;;;;6100096;23;19963;-79
2022/01/04 03:05:51;;;;;;;;;;;5.30;92.80;;;;;;6100772;23;20342;-79
2022/01/04 03:08:18;;;;;;;;;;;5.30;92.80;;;;;;6126281;23;19920;-80
2022/01/04 03:10:45;;;;;;;;;;;5.30;92.70;;;;;;6099216;23;20306;-79
2022/01/04 03:13:13;;;;;;;;;;;5.30;92.70;;;;;;6100473;23;19932;-80
2022/01/04 03:15:40;;;;;;;;;;;5.30;92.70;;;;;;6099796;23;19928;-82
2022/01/04 03:18:07;;;;;;;;;;;5.30;92.70;;;;;;6100258;23;19928;-80
2022/01/04 03:20:34;;;;;;;;;;;5.20;92.70;;;;;;6099617;23;19937;-79
2022/01/04 03:23:01;;;;;;;;;;;5.30;92.70;;;;;;6100648;23;20342;-80
2022/01/04 03:25:28;;;;;;;;;;;5.30;92.80;;;;;;6099543;23;19921;-79
2022/01/04 03:27:54;;;;;;;;;;;5.30;92.80;;;;;;6099025;23;19958;-81
2022/01/04 03:30:21;;;;;;;;;;;5.20;92.70;;;;;;6100438;23;19953;-80
2022/01/04 03:32:48;;;;;;;;;;;5.20;92.80;;;;;;6098698;23;19925;-79
2022/01/04 03:35:17;;;;;;;;;;;5.20;92.80;;;;;;6100165;23;19925;-82
2022/01/04 03:37:45;;;;;;;;;;;5.20;92.90;;;;;;6125283;23;19921;-82
2022/01/04 03:40:12;;;;;;;;;;;5.20;92.80;;;;;;6125552;23;19983;-79
2022/01/04 03:42:38;;;;;;;;;;;5.20;92.80;;;;;;6125315;23;20413;-82
2022/01/04 03:45:06;;;;;;;;;;;5.20;92.70;;;;;;6100689;23;20354;-80
2022/01/04 03:47:33;;;;;;;;;;;5.20;92.80;;;;;;6099243;23;19921;-79
2022/01/04 03:50:00;;;;;;;;;;;5.20;92.80;;;;;;6098969;23;19929;-79
2022/01/04 03:52:27;;;;;;;;;;;5.20;92.90;;;;;;6070403;23;19921;-80
2022/01/04 03:54:54;;;;;;;;;;;5.10;92.90;;;;;;6071778;23;19976;-79
2022/01/04 03:57:21;;;;;;;;;;;5.20;92.90;;;;;;6071581;23;20302;-82
2022/01/04 03:59:47;;;;;;;;;;;5.20;92.90;;;;;;6070348;23;19953;-79
2022/01/04 04:02:14;;;;;;;;;;;5.20;92.90;;;;;;6096612;23;19921;-80
2022/01/04 04:04:41;;;;;;;;;;;5.20;92.90;;;;;;6070381;23;19921;-82
2022/01/04 04:07:09;;;;;;;;;;;5.20;92.90;;;;;;6071439;23;19928;-79
2022/01/04 04:09:36;;;;;;;;;;;5.20;92.90;;;;;;6070154;23;19925;-80
2022/01/04 04:12:03;;;;;;;;;;;5.20;92.90;;;;;;6071137;23;20347;-79
2022/01/04 04:14:31;;;;;;;;;;;5.20;92.90;;;;;;6070887;23;19922;-80
2022/01/04 04:17:11;;;;;;;;;;;5.20;92.90;;;;;;6073694;23;19921;-82
2022/01/04 04:19:38;;;;;;;;;;;5.20;92.80;;;;;;6070144;23;19922;-79
2022/01/04 04:22:05;;;;;;;;;;;5.20;92.80;;;;;;6070954;23;20451;-79
2022/01/04 04:24:31;;;;;;;;;;;5.20;92.80;;;;;;6070256;23;19922;-79
2022/01/04 04:26:58;;;;;;;;;;;5.10;92.70;;;;;;6070921;23;19925;-79
2022/01/04 04:29:25;;;;;;;;;;;5.10;93.00;;;;;;6071062;23;19929;-80
2022/01/04 04:31:52;;;;;;;;;;;5.10;93.00;;;;;;6070344;23;19926;-78
2022/01/04 04:34:18;;;;;;;;;;;5.10;93.00;;;;;;6070772;23;19921;-79
2022/01/04 04:36:45;;;;;;;;;;;5.10;93.10;;;;;;6070180;23;19992;-79
2022/01/04 04:39:17;;;;;;;;;;;5.00;93.20;;;;;;6072140;23;20259;-80
2022/01/04 04:41:44;;;;;;;;;;;5.00;93.10;;;;;;6070519;23;19932;-80
2022/01/04 04:44:10;;;;;;;;;;;5.00;93.20;;;;;;6070737;23;19968;-80
2022/01/04 04:46:38;;;;;;;;;;;5.10;93.10;;;;;;6070295;23;19925;-80
2022/01/04 04:49:05;;;;;;;;;;;5.10;93.10;;;;;;6086152;23;19924;-79
2022/01/04 04:51:32;;;;;;;;;;;5.10;93.10;;;;;;6099133;23;20335;-79
2022/01/04 04:53:59;;;;;;;;;;;5.10;93.10;;;;;;6099552;23;19921;-79
2022/01/04 04:56:26;;;;;;;;;;;5.10;93.10;;;;;;6099948;23;19921;-82
2022/01/04 04:58:52;;;;;;;;;;;5.10;93.10;;;;;;6098861;23;19928;-79
2022/01/04 05:01:19;;;;;;;;;;;5.10;93.20;;;;;;6099758;23;19924;-82
2022/01/04 05:03:46;;;;;;;;;;;5.10;93.10;;;;;;6123984;23;19921;-80
2022/01/04 05:06:13;;;;;;;;;;;5.10;93.10;;;;;;6099777;23;19921;-79
2022/01/04 05:08:40;;;;;;;;;;;5.10;93.20;;;;;;6098744;23;19929;-79
2022/01/04 05:11:07;;;;;;;;;;;5.20;93.20;;;;;;6099797;23;19972;-80
2022/01/04 05:13:34;;;;;;;;;;;5.20;93.50;;;;;;6124154;23;19925;-80
2022/01/04 05:16:00;;;;;;;;;;;5.20;93.10;;;;;;6100103;23;20350;-80
2022/01/04 05:18:27;;;;;;;;;;;5.20;93.20;;;;;;6099378;23;19921;-80
2022/01/04 05:20:54;;;;;;;;;;;5.20;93.20;;;;;;6098905;23;20341;-82
2022/01/04 05:23:21;;;;;;;;;;;5.20;93.20;;;;;;6100030;23;19921;-80
2022/01/04 05:25:48;;;;;;;;;;;5.20;93.20;;;;;;6098596;23;19972;-79
2022/01/04 05:28:14;;;;;;;;;;;5.20;93.10;;;;;;6099874;23;19928;-80
2022/01/04 05:30:41;;;;;;;;;;;5.20;93.10;;;;;;6099178;23;20235;-80
2022/01/04 05:33:08;;;;;;;;;;;5.30;93.30;;;;;;6099508;23;19996;-82
2022/01/04 05:35:35;;;;;;;;;;;5.30;93.20;;;;;;6098841;23;19976;-80
2022/01/04 05:38:02;;;;;;;;;;;5.30;93.20;;;;;;6099635;23;20302;-82
2022/01/04 05:40:29;;;;;;;;;;;5.30;93.20;;;;;;6099249;23;20334;-79
2022/01/04 05:42:55;;;;;;;;;;;5.30;93.10;;;;;;6099143;23;20404;-79
2022/01/04 05:45:22;;;;;;;;;;;5.20;93.10;;;;;;6099260;23;19929;-81
2022/01/04 05:47:49;;;;;;;;;;;5.30;93.20;;;;;;6098379;23;19972;-81
2022/01/04 05:50:16;;;;;;;;;;;5.20;93.30;;;;;;6070612;23;19921;-80
2022/01/04 05:52:43;;;;;;;;;;;5.20;93.30;;;;;;6068866;23;20373;-79
2022/01/04 05:55:10;;;;;;;;;;;5.20;93.30;;;;;;6070294;23;20338;-77
2022/01/04 05:57:37;;;;;;;;;;;5.20;93.40;;;;;;6069858;23;19932;-81
2022/01/04 06:00:04;;;;;;;;;;;5.10;93.50;;;;;;6070379;23;19925;-78
2022/01/04 06:02:31;;;;;;;;;;;5.10;93.50;;;;;;6047452;23;20019;-80
2022/01/04 06:05:00;;;;;;;;;;;5.10;93.50;;;;;;6071808;23;19921;-81
2022/01/04 06:07:27;;;;;;;;;;;5.10;93.50;;;;;;6072350;23;19921;-80
2022/01/04 06:09:54;;;;;;;;;;;5.20;93.40;;;;;;6047582;23;20001;-79
2022/01/04 06:14:58;;;;;;;;;;;5.10;93.50;;;;;;6096396;23;19925;-78
2022/01/04 06:17:29;;;;;;;;;;;5.10;93.40;;;;;;6072359;23;20346;-79
2022/01/04 06:19:57;;;;;;;;;;;5.10;93.30;;;;;;6071179;23;19925;-79
2022/01/04 06:22:25;;;;;;;;;;;5.10;93.30;;;;;;6071814;23;20373;-80
2022/01/04 06:24:52;;;;;;;;;;;5.10;93.30;;;;;;6071165;23;20339;-81
2022/01/04 06:27:19;;;;;;;;;;;5.20;93.30;;;;;;6096419;23;19921;-79
2022/01/04 06:29:46;;;;;;;;;;;5.20;93.30;;;;;;6071041;23;19945;-81
2022/01/04 06:32:14;;;;;;;;;;;5.10;93.30;;;;;;6071295;23;19921;-79
2022/01/04 06:34:42;;;;;;;;;;;5.10;93.30;;;;;;6071735;23;20307;-81
2022/01/04 06:37:10;;;;;;;;;;;5.10;93.30;;;;;;6071802;23;20347;-78
2022/01/04 06:39:37;;;;;;;;;;;5.10;93.30;;;;;;6047119;23;19925;-80
2022/01/04 06:42:04;;;;;;;;;;;5.10;93.30;;;;;;6097374;23;20035;-79
2022/01/04 06:44:31;;;;;;;;;;;5.10;93.30;;;;;;6071683;23;19925;-80
2022/01/04 06:46:58;;;;;;;;;;;5.20;93.30;;;;;;6095584;23;19929;-80
2022/01/04 06:49:25;;;;;;;;;;;5.20;93.30;;;;;;6091373;23;19928;-81
2022/01/04 06:51:52;;;;;;;;;;;5.20;93.20;;;;;;6099477;23;19920;-80
2022/01/04 06:54:20;;;;;;;;;;;5.20;93.20;;;;;;6099933;23;20318;-81
2022/01/04 06:56:48;;;;;;;;;;;5.10;93.20;;;;;;6125254;23;19925;-79
2022/01/04 06:59:15;;;;;;;;;;;5.20;93.20;;;;;;6100259;23;19925;-79
2022/01/04 07:01:42;;;;;;;;;;;5.20;93.10;;;;;;6124953;23;19987;-78
2022/01/04 07:04:09;;;;;;;;;;;5.20;93.10;;;;;;6100813;23;19925;-78
2022/01/04 07:06:36;;;;;;;;;;;5.20;93.00;;;;;;6075877;23;20334;-78
2022/01/04 07:09:04;;;;;;;;;;;5.20;93.10;;;;;;6099557;23;19921;-80
2022/01/04 07:11:31;;;;;;;;;;;5.20;93.30;;;;;;6100473;23;20342;-79
2022/01/04 07:13:58;;;;;;;;;;;5.10;93.20;;;;;;6124554;23;19972;-79
2022/01/04 07:16:24;;;;;;;;;;;5.20;93.20;;;;;;6100052;23;20053;-81
2022/01/04 07:18:51;;;;;;;;;;;5.20;93.10;;;;;;6099323;23;20349;-81
2022/01/04 07:21:19;;;;;;;;;;;5.20;93.10;;;;;;6125474;23;19924;-80
2022/01/04 07:23:48;;;;;;;;;;;5.10;93.20;;;;;;6099583;23;19976;-80
2022/01/04 07:26:16;;;;;;;;;;;5.20;93.20;;;;;;6100275;23;19925;-79
2022/01/04 07:28:43;;;;;;;;;;;5.10;93.20;;;;;;6099413;23;19920;-80
2022/01/04 07:31:10;;;;;;;;;;;5.20;93.20;;;;;;6100496;23;19925;-80
2022/01/04 07:33:38;;;;;;;;;;;5.20;93.10;;;;;;6101023;23;19925;-81
2022/01/04 07:36:06;;;;;;;;;;;5.20;93.20;;;;;;6101347;23;19921;-79
2022/01/04 07:38:33;;;;;;;;;;;5.20;93.20;;;;;;6101966;23;19976;-82
2022/01/04 07:41:00;;;;;;;;;;;5.20;93.20;;;;;;6125055;23;20302;-81
2022/01/04 07:43:27;;;;;;;;;;;5.20;93.20;;;;;;6100490;23;19968;-80
2022/01/04 07:45:54;;;;;;;;;;;5.20;93.20;;;;;;6099604;23;19921;-80
2022/01/04 07:48:21;;;;;;;;;;;5.20;93.30;;;;;;6100960;23;20250;-80
2022/01/04 07:50:50;;;;;;;;;;;5.20;93.20;;;;;;6099405;23;19921;-80
2022/01/04 07:53:22;;;;;;;;;;;5.20;93.10;;;;;;6100828;23;19949;-82
2022/01/04 07:55:49;;;;;;;;;;;5.20;93.20;;;;;;6099146;23;20347;-80
2022/01/04 07:58:16;;;;;;;;;;;5.20;93.30;;;;;;6099670;23;19921;-79
2022/01/04 08:00:42;;;;;;;;;;;5.20;93.40;;;;;;6099208;23;20343;-80
2022/01/04 08:03:10;;;;;;;;;;;5.20;93.30;;;;;;6100259;23;20456;-81
2022/01/04 08:05:37;;;;;;;;;;;5.20;93.30;;;;;;6100768;23;19972;-80
2022/01/04 08:08:04;;;;;;;;;;;5.20;93.30;;;;;;6099286;23;20350;-81
2022/01/04 08:10:31;;;;;;;;;;;5.20;93.20;;;;;;6100850;23;19921;-81
2022/01/04 08:12:58;;;;;;;;;;;5.20;93.10;;;;;;6098851;23;19975;-75
2022/01/04 08:15:27;;;;;;;;;;;5.30;93.10;;;;;;6125505;23;19929;-77
2022/01/04 08:17:54;;;;;;;;;;;5.30;93.10;;;;;;6099768;23;19931;-80
2022/01/04 08:20:20;;;;;;;;;;;5.30;93.10;;;;;;6099477;23;19978;-79
2022/01/04 08:22:47;;;;;;;;;;;5.40;93.50;;;;;;6099654;23;19929;-77
2022/01/04 08:25:14;;;;;;;;;;;5.40;93.10;;;;;;6099197;23;19928;-80
2022/01/04 08:27:41;;;;;;;;;;;5.40;93.00;;;;;;6125235;23;19921;-77
2022/01/04 08:30:09;;;;;;;;;;;5.40;93.10;;;;;;6098814;23;20366;-80
2022/01/04 08:32:37;;;;;;;;;;;5.40;93.10;;;;;;6099492;23;19968;-77
2022/01/04 08:35:05;;;;;;;;;;;5.40;93.20;;;;;;6098550;23;20368;-80
2022/01/04 08:37:33;;;;;;;;;;;5.40;93.10;;;;;;6099993;23;19928;-80
2022/01/04 08:40:00;;;;;;;;;;;5.40;93.00;;;;;;6098800;23;20296;-80
2022/01/04 08:42:26;;;;;;;;;;;5.40;93.10;;;;;;6125291;23;19981;-80
2022/01/04 08:44:55;;;;;;;;;;;5.50;93.10;;;;;;6098914;23;19927;-80
2022/01/04 08:47:23;;;;;;;;;;;5.50;93.00;;;;;;6099460;23;20334;-79
2022/01/04 08:49:50;;;;;;;;;;;5.50;93.10;;;;;;6099935;23;19925;-80
2022/01/04 08:52:17;;;;;;;;;;;5.50;93.10;;;;;;6098439;23;19928;-80
2022/01/04 08:54:44;;;;;;;;;;;5.50;93.10;;;;;;6099865;23;19920;-81
2022/01/04 08:57:10;;;;;;;;;;;5.50;93.00;;;;;;6098792;23;19948;-77
2022/01/04 08:59:37;;;;;;;;;;;5.60;93.00;;;;;;6099246;23;19931;-79
2022/01/04 09:02:04;;;;;;;;;;;5.60;93.00;;;;;;6098073;23;19921;-80
2022/01/04 09:04:32;;;;;;;;;;;5.50;93.00;;;;;;6100307;23;19920;-81
2022/01/04 09:07:00;;;;;;;;;;;5.60;93.10;;;;;;6123850;23;19928;-77
2022/01/04 09:09:27;;;;;;;;;;;5.60;93.00;;;;;;6099896;23;19925;-80
2022/01/04 09:12:14;;;;;;;;;;;5.70;92.90;;;;;;6102635;23;19980;-81
2022/01/04 09:14:55;;;;;;;;;;;5.70;93.00;;;;;;6099461;23;19921;-78
2022/01/04 09:20:09;;;;;;;;;;;5.70;92.90;;;;;;6124365;23;20365;-79
2022/01/04 09:22:36;;;;;;;;;;;5.80;93.20;;;;;;6099239;23;19925;-80
2022/01/04 09:25:03;;;;;;;;;;;5.80;92.80;;;;;;6124596;23;19921;-79
2022/01/04 09:27:30;;;;;;;;;;;5.90;92.70;;;;;;6099490;23;19925;-79
2022/01/04 09:30:02;;;;;;;;;;;5.90;92.60;;;;;;6100377;23;19928;-80
2022/01/04 09:32:35;;;;;;;;;;;5.90;92.50;;;;;;6125154;23;20776;-77
2022/01/04 09:35:04;;;;;;;;;;;5.90;92.50;;;;;;6099674;23;19925;-77
2022/01/04 09:37:31;;;;;;;;;;;6.00;92.40;;;;;;6099258;23;19925;-80
2022/01/04 09:39:57;;;;;;;;;;;6.00;92.40;;;;;;6101407;23;19921;-79
2022/01/04 09:42:24;;;;;;;;;;;6.00;92.40;;;;;;6099964;23;19929;-78
2022/01/04 09:44:51;;;;;;;;;;;6.00;92.40;;;;;;6126346;23;19921;-78
2022/01/04 09:47:18;;;;;;;;;;;6.00;92.40;;;;;;6100516;23;19921;-77
2022/01/04 09:49:45;;;;;;;;;;;6.00;92.40;;;;;;6100301;23;19936;-80
2022/01/04 09:52:19;;;;;;;;;;;6.00;92.40;;;;;;6100704;23;20294;-80
2022/01/04 09:54:49;;;;;;;;;;;6.10;92.40;;;;;;6127044;23;19925;-79
2022/01/04 09:57:16;;;;;;;;;;;6.10;92.50;;;;;;6125711;23;19921;-80
2022/01/04 09:59:43;;;;;;;;;;;6.10;92.50;;;;;;6101129;23;20283;-77
2022/01/04 10:02:11;;;;;;;;;;;6.10;92.50;;;;;;6100507;23;19925;-77
2022/01/04 10:04:38;;;;;;;;;;;6.20;92.40;;;;;;6100982;23;20286;-80
2022/01/04 10:07:07;;;;;;;;;;;6.20;92.20;;;;;;6102157;23;20413;-78
2022/01/04 10:09:34;;;;;;;;;;;6.20;92.20;;;;;;6101501;23;20409;-78
2022/01/04 10:12:01;;;;;;;;;;;6.20;92.20;;;;;;6102244;23;19921;-79
2022/01/04 10:14:28;;;;;;;;;;;6.30;92.30;;;;;;6100905;23;19921;-79
2022/01/04 10:16:56;;;;;;;;;;;6.40;92.20;;;;;;6100947;23;19925;-80
2022/01/04 10:19:29;;;;;;;;;;;6.40;92.10;;;;;;6125935;23;20369;-80
2022/01/04 10:22:17;;;;;;;;;;;6.40;91.90;;;;;;6101957;23;19921;-79
2022/01/04 10:24:45;;;;;;;;;;;6.50;91.80;;;;;;6125637;23;19988;-80
2022/01/04 10:27:21;;;;;;;;;;;6.60;91.90;;;;;;6100812;23;20262;-77
2022/01/04 10:29:48;;;;;;;;;;;6.70;91.50;;;;;;6100079;23;20349;-77
2022/01/04 10:32:17;;;;;;;;;;;6.70;91.50;;;;;;6100231;23;19972;-77
2022/01/04 10:34:47;;;;;;;;;;;6.80;91.40;;;;;;6100056;23;19921;-79
2022/01/04 10:37:34;;;;;;;;;;;6.80;91.30;;;;;;6101694;23;19920;-80
2022/01/04 10:40:03;;;;;;;;;;;6.90;91.20;;;;;;6100257;23;20381;-80
2022/01/04 10:42:30;;;;;;;;;;;7.00;91.30;;;;;;6101529;23;19925;-80
2022/01/04 10:44:57;;;;;;;;;;;7.00;91.10;;;;;;6126606;23;19933;-80
2022/01/04 10:47:30;;;;;;;;;;;7.00;91.00;;;;;;6101254;23;19921;-79
2022/01/04 10:49:58;;;;;;;;;;;7.10;91.00;;;;;;6099848;23;19921;-80
2022/01/04 10:52:31;;;;;;;;;;;7.10;90.80;;;;;;6101298;23;19929;-81
2022/01/04 10:55:11;;;;;;;;;;;7.20;90.60;;;;;;6124843;23;19935;-77
2022/01/04 10:57:38;;;;;;;;;;;7.20;90.50;;;;;;6100087;23;19932;-80
2022/01/04 11:00:15;;;;;;;;;;;7.20;90.40;;;;;;6100838;23;20356;-81
2022/01/04 11:02:42;;;;;;;;;;;7.20;90.60;;;;;;6099646;23;19921;-81
2022/01/04 11:05:13;;;;;;;;;;;7.30;90.60;;;;;;6100694;23;20335;-80
2022/01/04 11:07:59;;;;;;;;;;;7.30;90.70;;;;;;6099363;23;19972;-81
2022/01/04 11:10:34;;;;;;;;;;;7.30;90.60;;;;;;6126105;23;19921;-80
2022/01/04 11:13:01;;;;;;;;;;;7.30;90.50;;;;;;6099331;23;20367;-80
2022/01/04 11:15:29;;;;;;;;;;;7.30;90.50;;;;;;6100699;23;20004;-80
2022/01/04 11:17:56;;;;;;;;;;;7.30;90.50;;;;;;6124540;23;19953;-81
2022/01/04 11:20:23;;;;;;;;;;;7.30;90.50;;;;;;6100206;23;20423;-80
2022/01/04 11:22:50;;;;;;;;;;;7.30;90.50;;;;;;6124798;23;20255;-77
2022/01/04 11:25:21;;;;;;;;;;;7.30;90.60;;;;;;6076644;23;19928;-80
2022/01/04 11:27:49;;;;;;;;;;;7.30;90.50;;;;;;6099042;23;19925;-79
2022/01/04 11:30:21;;;;;;;;;;;7.30;90.50;;;;;;6125634;23;19921;-80
2022/01/04 11:32:51;;;;;;;;;;;7.30;90.40;;;;;;6097899;23;19921;-77
2022/01/04 11:35:21;;;;;;;;;;;7.30;90.50;;;;;;6100305;23;19921;-77
2022/01/04 11:37:56;;;;;;;;;;;7.30;90.50;;;;;;6099247;23;19921;-77
2022/01/04 11:40:31;;;;;;;;;;;7.30;90.40;;;;;;6101124;23;20346;-79
2022/01/04 11:42:58;;;;;;;;;;;7.30;90.70;;;;;;6100349;23;20361;-77
2022/01/04 11:45:39;;;;;;;;;;;7.30;90.80;;;;;;6098314;23;19931;-80
2022/01/04 11:48:25;;;;;;;;;;;7.40;90.80;;;;;;6098043;23;19921;-80
2022/01/04 11:50:56;;;;;;;;;;;7.40;90.30;;;;;;6070952;23;20335;-80
2022/01/04 11:53:23;;;;;;;;;;;7.50;90.40;;;;;;6071801;23;19921;-78
2022/01/04 11:55:51;;;;;;;;;;;7.50;90.30;;;;;;6042856;23;20013;-79
2022/01/04 11:58:22;;;;;;;;;;;7.60;90.20;;;;;;6061297;23;19928;-81
2022/01/04 12:00:57;;;;;;;;;;;7.60;90.10;;;;;;6069925;23;19928;-80
2022/01/04 12:03:38;;;;;;;;;;;7.60;90.00;;;;;;6071233;23;19921;-77
2022/01/04 12:06:06;;;;;;;;;;;7.60;89.90;;;;;;6070546;23;20252;-77
2022/01/04 12:08:34;;;;;;;;;;;7.70;89.70;;;;;;6071894;23;19969;-80
2022/01/04 12:11:01;;;;;;;;;;;7.70;89.60;;;;;;6069824;23;20003;-81
2022/01/04 12:13:47;;;;;;;;;;;7.70;89.50;;;;;;6071592;23;19921;-80
2022/01/04 12:16:14;;;;;;;;;;;7.70;89.90;;;;;;6070210;23;19921;-79
2022/01/04 12:18:41;;;;;;;;;;;7.70;89.60;;;;;;6070108;23;19925;-77
2022/01/04 12:21:14;;;;;;;;;;;7.70;89.80;;;;;;6069200;23;19925;-78
2022/01/04 12:23:44;;;;;;;;;;;7.70;89.90;;;;;;6070653;23;20353;-79
2022/01/04 12:26:12;;;;;;;;;;;7.70;90.00;;;;;;6068304;23;20339;-77
2022/01/04 12:28:43;;;;;;;;;;;7.70;90.00;;;;;;6069548;23;20232;-80
2022/01/04 12:31:13;;;;;;;;;;;7.70;90.20;;;;;;6069469;23;19932;-78
2022/01/04 12:33:41;;;;;;;;;;;7.80;90.30;;;;;;6070221;23;19921;-79
2022/01/04 12:36:09;;;;;;;;;;;7.70;90.40;;;;;;6069310;23;19928;-81
2022/01/04 12:38:36;;;;;;;;;;;7.70;90.40;;;;;;6070163;23;19921;-81
2022/01/04 12:41:04;;;;;;;;;;;7.80;90.40;;;;;;6070397;23;20398;-79
2022/01/04 12:43:31;;;;;;;;;;;7.80;90.30;;;;;;6071081;23;20263;-81
2022/01/04 12:45:59;;;;;;;;;;;7.80;90.20;;;;;;6070311;23;20008;-81
2022/01/04 12:48:46;;;;;;;;;;;7.80;90.30;;;;;;6078321;23;19925;-77
2022/01/04 12:51:29;;;;;;;;;;;7.80;90.30;;;;;;6099218;23;19921;-81
2022/01/04 12:54:00;;;;;;;;;;;7.70;90.30;;;;;;6099972;23;19943;-80
2022/01/04 12:56:28;;;;;;;;;;;7.70;90.50;;;;;;6100198;23;19972;-79
2022/01/04 12:58:57;;;;;;;;;;;7.70;90.50;;;;;;6099926;23;19925;-80
2022/01/04 13:01:27;;;;;;;;;;;7.70;90.50;;;;;;6099303;23;20365;-77
2022/01/04 13:03:55;;;;;;;;;;;7.70;91.00;;;;;;6099423;23;19924;-79
2022/01/04 13:06:22;;;;;;;;;;;7.70;90.60;;;;;;6098762;23;19928;-81
2022/01/04 13:08:59;;;;;;;;;;;7.70;90.50;;;;;;6099343;23;19921;-80
2022/01/04 13:11:26;;;;;;;;;;;7.70;90.50;;;;;;6103463;23;19952;-81
2022/01/04 13:13:54;;;;;;;;;;;7.70;90.50;;;;;;6100822;23;19925;-78
2022/01/04 13:16:30;;;;;;;;;;;7.60;90.50;;;;;;6101626;23;19921;-77
2022/01/04 13:19:10;;;;;;;;;;;7.70;90.60;;;;;;6125302;23;19928;-80
2022/01/04 13:21:37;;;;;;;;;;;7.70;90.60;;;;;;6126044;23;19928;-79
2022/01/04 13:24:04;;;;;;;;;;;7.70;90.60;;;;;;6101315;23;19921;-77
2022/01/04 13:26:31;;;;;;;;;;;7.60;90.50;;;;;;6100373;23;19924;-80
2022/01/04 13:28:59;;;;;;;;;;;7.70;90.60;;;;;;6100807;23;19980;-80
2022/01/04 13:31:26;;;;;;;;;;;7.70;90.60;;;;;;6100340;23;19991;-80
2022/01/04 13:33:54;;;;;;;;;;;7.70;90.60;;;;;;6100376;23;19995;-80
2022/01/04 13:36:22;;;;;;;;;;;7.70;90.60;;;;;;6126126;23;20294;-80
2022/01/04 13:38:50;;;;;;;;;;;7.70;90.60;;;;;;6100570;23;19928;-81
2022/01/04 13:41:33;;;;;;;;;;;7.70;90.60;;;;;;6099812;23;19921;-79
2022/01/04 13:44:04;;;;;;;;;;;7.80;90.50;;;;;;6100864;23;20354;-79
2022/01/04 13:46:33;;;;;;;;;;;7.80;90.50;;;;;;6125412;23;19925;-78
2022/01/04 13:49:00;;;;;;;;;;;7.80;90.40;;;;;;6100878;23;19940;-80
2022/01/04 13:51:30;;;;;;;;;;;7.80;90.40;;;;;;6124472;23;19925;-77
2022/01/04 13:54:00;;;;;;;;;;;7.80;90.40;;;;;;6100550;23;20401;-80
2022/01/04 13:56:30;;;;;;;;;;;7.70;90.40;;;;;;6099144;23;19925;-77
2022/01/04 13:58:58;;;;;;;;;;;7.70;90.50;;;;;;6100919;23;19920;-80
2022/01/04 14:01:34;;;;;;;;;;;7.70;90.80;;;;;;6099539;23;19956;-81
2022/01/04 14:04:21;;;;;;;;;;;7.70;90.90;;;;;;6101227;23;19921;-81
2022/01/04 14:06:55;;;;;;;;;;;7.70;91.00;;;;;;6100378;23;19955;-77
2022/01/04 14:09:29;;;;;;;;;;;7.70;90.90;;;;;;6100022;23;19921;-80
2022/01/04 14:11:57;;;;;;;;;;;7.70;90.80;;;;;;6126083;23;21052;-81
2022/01/04 14:14:25;;;;;;;;;;;7.70;90.90;;;;;;6099907;23;19921;-80
2022/01/04 14:16:53;;;;;;;;;;;7.70;90.80;;;;;;6125645;23;19921;-80
2022/01/04 14:19:25;;;;;;;;;;;7.70;90.60;;;;;;6100863;23;19932;-81
2022/01/04 14:21:57;;;;;;;;;;;7.80;90.60;;;;;;6099274;23;19921;-77
2022/01/04 14:24:36;;;;;;;;;;;7.70;90.60;;;;;;6126505;23;19987;-79
2022/01/04 14:27:03;;;;;;;;;;;7.80;90.50;;;;;;6100310;23;20440;-79
2022/01/04 14:29:31;;;;;;;;;;;7.80;90.40;;;;;;6101460;23;19921;-80
2022/01/04 14:32:05;;;;;;;;;;;7.80;90.30;;;;;;6100319;23;20327;-79
2022/01/04 14:34:35;;;;;;;;;;;7.90;90.30;;;;;;6100750;23;19928;-77
2022/01/04 14:37:02;;;;;;;;;;;7.90;90.30;;;;;;6099821;23;19928;-78
2022/01/04 14:39:29;;;;;;;;;;;7.90;90.30;;;;;;6100231;23;19980;-81
2022/01/04 14:42:00;;;;;;;;;;;7.80;90.30;;;;;;6125381;23;20000;-80
2022/01/04 14:44:27;;;;;;;;;;;7.80;90.40;;;;;;6076601;23;19977;-77
2022/01/04 14:46:55;;;;;;;;;;;7.80;90.50;;;;;;6099579;23;19928;-80
2022/01/04 14:49:22;;;;;;;;;;;7.80;90.40;;;;;;6099230;23;19956;-81
2022/01/04 14:51:49;;;;;;;;;;;7.80;90.40;;;;;;6098568;23;20334;-79